sensor_id;sensor_type;location;lat;lon;timestamp;P1;durP1;ratioP1;P2;durP2;ratioP2
3066;SDS011;1544;48.834;9.194;2023-03-30T00:02:26;3.57;;;1.63;;
3066;SDS011;1544;48.834;9.194;2023-03-30T00:05:05;6.00;;;1.60;;
3066;SDS011;1544;48.834;9.194;2023-03-30T00:07:40;4.00;;;1.70;;
3066;SDS011;1544;48.834;9.194;2023-03-30T00:10:16;3.03;;;1.40;;
3066;SDS011;1544;48.834;9.194;2023-03-30T00:12:52;5.93;;;1.33;;
3066;SDS011;1544;48.834;9.194;2023-03-30T00:15:27;2.40;;;1.17;;
3066;SDS011;1544;48.834;9.194;2023-03-30T00:18:02;6.13;;;1.30;;
3066;SDS011;1544;48.834;9.194;2023-03-30T00:20:37;3.20;;;1.50;;
3066;SDS011;1544;48.834;9.194;2023-03-30T00:23:16;5.63;;;1.17;;
3066;SDS011;1544;48.834;9.194;2023-03-30T00:25:53;6.23;;;1.73;;
3066;SDS011;1544;48.834;9.194;2023-03-30T00:28:29;1.67;;;1.00;;
3066;SDS011;1544;48.834;9.194;2023-03-30T00:31:04;2.90;;;1.10;;
3066;SDS011;1544;48.834;9.194;2023-03-30T00:33:40;4.53;;;1.60;;
3066;SDS011;1544;48.834;9.194;2023-03-30T00:36:20;3.27;;;1.23;;
3066;SDS011;1544;48.834;9.194;2023-03-30T00:38:55;5.07;;;1.60;;
3066;SDS011;1544;48.834;9.194;2023-03-30T00:41:34;2.30;;;1.37;;
3066;SDS011;1544;48.834;9.194;2023-03-30T00:47:42;9.47;;;1.37;;
3066;SDS011;1544;48.834;9.194;2023-03-30T00:50:27;8.27;;;1.50;;
3066;SDS011;1544;48.834;9.194;2023-03-30T00:53:15;3.07;;;1.23;;
3066;SDS011;1544;48.834;9.194;2023-03-30T00:55:57;5.73;;;1.67;;
3066;SDS011;1544;48.834;9.194;2023-03-30T00:58:35;3.97;;;1.90;;
3066;SDS011;1544;48.834;9.194;2023-03-30T01:01:13;2.40;;;1.30;;
3066;SDS011;1544;48.834;9.194;2023-03-30T01:03:52;3.10;;;1.27;;
3066;SDS011;1544;48.834;9.194;2023-03-30T01:06:36;1.70;;;1.10;;
3066;SDS011;1544;48.834;9.194;2023-03-30T01:09:14;2.33;;;0.90;;
3066;SDS011;1544;48.834;9.194;2023-03-30T01:11:50;4.10;;;1.23;;
3066;SDS011;1544;48.834;9.194;2023-03-30T01:14:25;3.13;;;1.30;;
3066;SDS011;1544;48.834;9.194;2023-03-30T01:17:15;2.97;;;1.20;;
3066;SDS011;1544;48.834;9.194;2023-03-30T01:23:26;4.80;;;1.30;;
3066;SDS011;1544;48.834;9.194;2023-03-30T01:26:41;5.87;;;1.40;;
3066;SDS011;1544;48.834;9.194;2023-03-30T01:30:02;4.47;;;1.30;;
3066;SDS011;1544;48.834;9.194;2023-03-30T01:39:44;7.10;;;1.80;;
3066;SDS011;1544;48.834;9.194;2023-03-30T01:42:49;10.60;;;2.83;;
3066;SDS011;1544;48.834;9.194;2023-03-30T01:45:43;3.73;;;1.50;;
3066;SDS011;1544;48.834;9.194;2023-03-30T01:48:27;4.47;;;2.03;;
3066;SDS011;1544;48.834;9.194;2023-03-30T01:51:22;2.27;;;1.50;;
3066;SDS011;1544;48.834;9.194;2023-03-30T01:54:25;6.77;;;2.03;;
3066;SDS011;1544;48.834;9.194;2023-03-30T01:57:11;4.60;;;1.83;;
3066;SDS011;1544;48.834;9.194;2023-03-30T01:59:54;8.60;;;2.00;;
3066;SDS011;1544;48.834;9.194;2023-03-30T02:02:34;6.80;;;1.83;;
3066;SDS011;1544;48.834;9.194;2023-03-30T02:05:10;5.97;;;1.93;;
3066;SDS011;1544;48.834;9.194;2023-03-30T02:07:52;6.43;;;1.90;;
3066;SDS011;1544;48.834;9.194;2023-03-30T02:10:32;4.57;;;1.50;;
3066;SDS011;1544;48.834;9.194;2023-03-30T02:13:09;8.23;;;1.70;;
3066;SDS011;1544;48.834;9.194;2023-03-30T02:15:47;17.70;;;2.13;;
3066;SDS011;1544;48.834;9.194;2023-03-30T02:18:36;9.93;;;1.80;;
3066;SDS011;1544;48.834;9.194;2023-03-30T02:21:11;4.20;;;1.53;;
3066;SDS011;1544;48.834;9.194;2023-03-30T02:23:46;10.33;;;2.20;;
3066;SDS011;1544;48.834;9.194;2023-03-30T02:26:22;8.10;;;2.20;;
3066;SDS011;1544;48.834;9.194;2023-03-30T02:28:57;4.20;;;1.30;;
3066;SDS011;1544;48.834;9.194;2023-03-30T02:31:34;5.87;;;1.30;;
3066;SDS011;1544;48.834;9.194;2023-03-30T02:34:17;7.00;;;1.67;;
3066;SDS011;1544;48.834;9.194;2023-03-30T02:40:11;4.87;;;1.90;;
3066;SDS011;1544;48.834;9.194;2023-03-30T02:51:45;5.57;;;1.50;;
3066;SDS011;1544;48.834;9.194;2023-03-30T02:54:47;6.30;;;1.73;;
3066;SDS011;1544;48.834;9.194;2023-03-30T02:58:09;4.40;;;1.93;;
3066;SDS011;1544;48.834;9.194;2023-03-30T03:01:40;5.97;;;2.27;;
3066;SDS011;1544;48.834;9.194;2023-03-30T03:04:24;6.10;;;1.93;;
3066;SDS011;1544;48.834;9.194;2023-03-30T03:07:20;6.00;;;1.97;;
3066;SDS011;1544;48.834;9.194;2023-03-30T03:09:58;6.67;;;2.00;;
3066;SDS011;1544;48.834;9.194;2023-03-30T03:12:34;7.27;;;1.77;;
3066;SDS011;1544;48.834;9.194;2023-03-30T03:15:09;9.73;;;2.13;;
3066;SDS011;1544;48.834;9.194;2023-03-30T03:17:55;8.47;;;1.90;;
3066;SDS011;1544;48.834;9.194;2023-03-30T03:20:30;6.20;;;2.00;;
3066;SDS011;1544;48.834;9.194;2023-03-30T03:23:07;8.23;;;1.80;;
3066;SDS011;1544;48.834;9.194;2023-03-30T03:25:49;6.43;;;1.60;;
3066;SDS011;1544;48.834;9.194;2023-03-30T03:28:27;4.97;;;1.90;;
3066;SDS011;1544;48.834;9.194;2023-03-30T03:31:10;8.80;;;2.00;;
3066;SDS011;1544;48.834;9.194;2023-03-30T03:33:47;6.10;;;1.93;;
3066;SDS011;1544;48.834;9.194;2023-03-30T03:36:29;8.40;;;1.63;;
3066;SDS011;1544;48.834;9.194;2023-03-30T03:39:04;6.73;;;1.90;;
3066;SDS011;1544;48.834;9.194;2023-03-30T03:41:39;6.70;;;1.70;;
3066;SDS011;1544;48.834;9.194;2023-03-30T03:44:14;10.30;;;3.00;;
3066;SDS011;1544;48.834;9.194;2023-03-30T03:46:49;7.17;;;2.20;;
3066;SDS011;1544;48.834;9.194;2023-03-30T03:49:24;8.83;;;2.70;;
3066;SDS011;1544;48.834;9.194;2023-03-30T03:51:59;3.80;;;1.60;;
3066;SDS011;1544;48.834;9.194;2023-03-30T03:54:34;8.13;;;2.40;;
3066;SDS011;1544;48.834;9.194;2023-03-30T03:57:09;9.63;;;1.80;;
3066;SDS011;1544;48.834;9.194;2023-03-30T03:59:44;9.60;;;2.03;;
3066;SDS011;1544;48.834;9.194;2023-03-30T04:02:20;6.47;;;2.40;;
3066;SDS011;1544;48.834;9.194;2023-03-30T04:04:59;4.57;;;2.13;;
3066;SDS011;1544;48.834;9.194;2023-03-30T04:07:34;5.10;;;2.03;;
3066;SDS011;1544;48.834;9.194;2023-03-30T04:10:10;7.63;;;1.80;;
3066;SDS011;1544;48.834;9.194;2023-03-30T04:13:02;5.03;;;2.13;;
3066;SDS011;1544;48.834;9.194;2023-03-30T04:15:58;10.83;;;2.23;;
3066;SDS011;1544;48.834;9.194;2023-03-30T04:18:51;10.33;;;2.47;;
3066;SDS011;1544;48.834;9.194;2023-03-30T04:21:59;8.77;;;2.20;;
3066;SDS011;1544;48.834;9.194;2023-03-30T04:24:56;8.00;;;2.10;;
3066;SDS011;1544;48.834;9.194;2023-03-30T04:28:01;6.67;;;1.90;;
3066;SDS011;1544;48.834;9.194;2023-03-30T04:31:05;8.40;;;2.50;;
3066;SDS011;1544;48.834;9.194;2023-03-30T04:34:04;4.93;;;1.87;;
3066;SDS011;1544;48.834;9.194;2023-03-30T04:36:48;3.50;;;1.50;;
3066;SDS011;1544;48.834;9.194;2023-03-30T04:39:44;7.37;;;2.23;;
3066;SDS011;1544;48.834;9.194;2023-03-30T04:42:40;8.80;;;2.40;;
3066;SDS011;1544;48.834;9.194;2023-03-30T04:45:38;8.93;;;2.87;;
3066;SDS011;1544;48.834;9.194;2023-03-30T04:48:36;8.50;;;2.63;;
3066;SDS011;1544;48.834;9.194;2023-03-30T04:51:30;4.23;;;1.80;;
3066;SDS011;1544;48.834;9.194;2023-03-30T04:54:34;6.00;;;2.60;;
3066;SDS011;1544;48.834;9.194;2023-03-30T04:57:32;6.30;;;2.07;;
3066;SDS011;1544;48.834;9.194;2023-03-30T05:00:33;4.97;;;1.90;;
3066;SDS011;1544;48.834;9.194;2023-03-30T05:03:26;8.30;;;2.13;;
3066;SDS011;1544;48.834;9.194;2023-03-30T05:06:02;6.20;;;1.93;;
3066;SDS011;1544;48.834;9.194;2023-03-30T05:08:46;4.50;;;2.00;;
3066;SDS011;1544;48.834;9.194;2023-03-30T05:11:45;11.60;;;2.87;;
3066;SDS011;1544;48.834;9.194;2023-03-30T05:14:58;8.27;;;2.47;;
3066;SDS011;1544;48.834;9.194;2023-03-30T05:17:49;8.17;;;2.17;;
3066;SDS011;1544;48.834;9.194;2023-03-30T05:20:57;9.03;;;2.10;;
3066;SDS011;1544;48.834;9.194;2023-03-30T05:23:59;6.30;;;2.27;;
3066;SDS011;1544;48.834;9.194;2023-03-30T05:27:03;4.53;;;2.50;;
3066;SDS011;1544;48.834;9.194;2023-03-30T05:29:52;6.27;;;1.80;;
3066;SDS011;1544;48.834;9.194;2023-03-30T05:32:46;6.30;;;3.10;;
3066;SDS011;1544;48.834;9.194;2023-03-30T05:35:41;5.47;;;2.13;;
3066;SDS011;1544;48.834;9.194;2023-03-30T05:38:40;6.30;;;3.13;;
3066;SDS011;1544;48.834;9.194;2023-03-30T05:41:48;7.17;;;2.43;;
3066;SDS011;1544;48.834;9.194;2023-03-30T05:44:52;8.57;;;2.60;;
3066;SDS011;1544;48.834;9.194;2023-03-30T05:47:46;5.57;;;2.70;;
3066;SDS011;1544;48.834;9.194;2023-03-30T05:50:46;10.17;;;2.87;;
3066;SDS011;1544;48.834;9.194;2023-03-30T05:53:34;8.30;;;3.30;;
3066;SDS011;1544;48.834;9.194;2023-03-30T05:56:31;9.00;;;4.00;;
3066;SDS011;1544;48.834;9.194;2023-03-30T05:59:25;8.00;;;3.53;;
3066;SDS011;1544;48.834;9.194;2023-03-30T06:02:19;17.73;;;4.50;;
3066;SDS011;1544;48.834;9.194;2023-03-30T06:04:55;5.90;;;3.00;;
3066;SDS011;1544;48.834;9.194;2023-03-30T06:07:30;15.87;;;4.53;;
3066;SDS011;1544;48.834;9.194;2023-03-30T06:10:06;12.13;;;3.63;;
3066;SDS011;1544;48.834;9.194;2023-03-30T06:12:41;4.77;;;3.07;;
3066;SDS011;1544;48.834;9.194;2023-03-30T06:15:31;9.17;;;3.50;;
3066;SDS011;1544;48.834;9.194;2023-03-30T06:18:16;8.30;;;3.03;;
3066;SDS011;1544;48.834;9.194;2023-03-30T06:20:59;7.03;;;2.60;;
3066;SDS011;1544;48.834;9.194;2023-03-30T06:23:36;12.53;;;3.00;;
3066;SDS011;1544;48.834;9.194;2023-03-30T06:26:15;6.50;;;3.00;;
3066;SDS011;1544;48.834;9.194;2023-03-30T06:28:53;9.10;;;3.00;;
3066;SDS011;1544;48.834;9.194;2023-03-30T06:31:28;6.20;;;3.17;;
3066;SDS011;1544;48.834;9.194;2023-03-30T06:34:26;11.07;;;2.53;;
3066;SDS011;1544;48.834;9.194;2023-03-30T06:37:01;7.77;;;2.60;;
3066;SDS011;1544;48.834;9.194;2023-03-30T06:39:36;7.00;;;2.63;;
3066;SDS011;1544;48.834;9.194;2023-03-30T06:42:12;13.97;;;3.53;;
3066;SDS011;1544;48.834;9.194;2023-03-30T06:45:06;7.90;;;2.40;;
3066;SDS011;1544;48.834;9.194;2023-03-30T06:47:43;7.03;;;1.80;;
3066;SDS011;1544;48.834;9.194;2023-03-30T06:50:19;6.97;;;1.93;;
3066;SDS011;1544;48.834;9.194;2023-03-30T06:52:54;7.53;;;2.83;;
3066;SDS011;1544;48.834;9.194;2023-03-30T06:55:30;5.73;;;1.97;;
3066;SDS011;1544;48.834;9.194;2023-03-30T06:58:08;8.70;;;2.30;;
3066;SDS011;1544;48.834;9.194;2023-03-30T07:00:43;10.17;;;2.40;;
3066;SDS011;1544;48.834;9.194;2023-03-30T07:03:47;8.00;;;2.10;;
3066;SDS011;1544;48.834;9.194;2023-03-30T07:06:34;5.23;;;2.27;;
3066;SDS011;1544;48.834;9.194;2023-03-30T07:09:09;4.97;;;2.30;;
3066;SDS011;1544;48.834;9.194;2023-03-30T07:11:46;8.07;;;2.30;;
3066;SDS011;1544;48.834;9.194;2023-03-30T07:14:21;8.20;;;2.53;;
3066;SDS011;1544;48.834;9.194;2023-03-30T07:16:56;11.47;;;2.77;;
3066;SDS011;1544;48.834;9.194;2023-03-30T07:19:31;12.10;;;3.20;;
3066;SDS011;1544;48.834;9.194;2023-03-30T07:22:07;11.43;;;2.77;;
3066;SDS011;1544;48.834;9.194;2023-03-30T07:24:44;14.07;;;5.40;;
3066;SDS011;1544;48.834;9.194;2023-03-30T07:27:19;10.80;;;4.20;;
3066;SDS011;1544;48.834;9.194;2023-03-30T07:30:01;5.10;;;2.87;;
3066;SDS011;1544;48.834;9.194;2023-03-30T07:32:57;13.63;;;4.07;;
3066;SDS011;1544;48.834;9.194;2023-03-30T07:35:32;7.50;;;3.37;;
3066;SDS011;1544;48.834;9.194;2023-03-30T07:38:12;5.50;;;3.50;;
3066;SDS011;1544;48.834;9.194;2023-03-30T07:40:52;6.63;;;3.57;;
3066;SDS011;1544;48.834;9.194;2023-03-30T07:43:29;11.03;;;3.77;;
3066;SDS011;1544;48.834;9.194;2023-03-30T07:46:05;12.53;;;5.10;;
3066;SDS011;1544;48.834;9.194;2023-03-30T07:48:45;11.70;;;4.27;;
3066;SDS011;1544;48.834;9.194;2023-03-30T07:51:20;10.97;;;4.90;;
3066;SDS011;1544;48.834;9.194;2023-03-30T07:54:27;8.67;;;4.20;;
3066;SDS011;1544;48.834;9.194;2023-03-30T07:57:11;10.33;;;4.80;;
3066;SDS011;1544;48.834;9.194;2023-03-30T07:59:47;6.60;;;4.23;;
3066;SDS011;1544;48.834;9.194;2023-03-30T08:02:40;8.00;;;5.00;;
3066;SDS011;1544;48.834;9.194;2023-03-30T08:05:20;7.97;;;4.67;;
3066;SDS011;1544;48.834;9.194;2023-03-30T08:08:10;7.97;;;5.10;;
3066;SDS011;1544;48.834;9.194;2023-03-30T08:10:47;11.47;;;5.30;;
3066;SDS011;1544;48.834;9.194;2023-03-30T08:13:22;13.57;;;6.80;;
3066;SDS011;1544;48.834;9.194;2023-03-30T08:15:58;9.87;;;5.97;;
3066;SDS011;1544;48.834;9.194;2023-03-30T08:18:33;7.63;;;4.97;;
3066;SDS011;1544;48.834;9.194;2023-03-30T08:21:10;12.40;;;5.20;;
3066;SDS011;1544;48.834;9.194;2023-03-30T08:23:45;9.77;;;4.40;;
3066;SDS011;1544;48.834;9.194;2023-03-30T08:26:20;6.87;;;5.20;;
3066;SDS011;1544;48.834;9.194;2023-03-30T08:28:55;12.27;;;5.00;;
3066;SDS011;1544;48.834;9.194;2023-03-30T08:31:31;11.53;;;5.70;;
3066;SDS011;1544;48.834;9.194;2023-03-30T08:34:06;10.13;;;5.27;;
3066;SDS011;1544;48.834;9.194;2023-03-30T08:36:41;7.63;;;4.10;;
3066;SDS011;1544;48.834;9.194;2023-03-30T08:39:16;11.63;;;5.50;;
3066;SDS011;1544;48.834;9.194;2023-03-30T08:44:39;8.60;;;4.27;;
3066;SDS011;1544;48.834;9.194;2023-03-30T08:47:31;8.20;;;4.43;;
3066;SDS011;1544;48.834;9.194;2023-03-30T08:50:13;9.67;;;5.60;;
3066;SDS011;1544;48.834;9.194;2023-03-30T08:52:52;7.70;;;4.20;;
3066;SDS011;1544;48.834;9.194;2023-03-30T08:55:31;11.00;;;4.53;;
3066;SDS011;1544;48.834;9.194;2023-03-30T08:58:33;6.33;;;3.83;;
3066;SDS011;1544;48.834;9.194;2023-03-30T09:01:22;5.20;;;3.27;;
3066;SDS011;1544;48.834;9.194;2023-03-30T09:07:19;10.00;;;5.43;;
3066;SDS011;1544;48.834;9.194;2023-03-30T09:09:57;9.73;;;5.50;;
3066;SDS011;1544;48.834;9.194;2023-03-30T09:12:44;10.10;;;5.67;;
3066;SDS011;1544;48.834;9.194;2023-03-30T09:15:36;7.87;;;4.60;;
3066;SDS011;1544;48.834;9.194;2023-03-30T09:18:32;9.53;;;5.40;;
3066;SDS011;1544;48.834;9.194;2023-03-30T09:21:09;10.83;;;5.17;;
3066;SDS011;1544;48.834;9.194;2023-03-30T09:23:45;7.07;;;4.20;;
3066;SDS011;1544;48.834;9.194;2023-03-30T09:26:30;6.67;;;4.83;;
3066;SDS011;1544;48.834;9.194;2023-03-30T09:29:33;6.07;;;3.80;;
3066;SDS011;1544;48.834;9.194;2023-03-30T09:32:29;8.60;;;4.53;;
3066;SDS011;1544;48.834;9.194;2023-03-30T09:35:10;4.70;;;4.23;;
3066;SDS011;1544;48.834;9.194;2023-03-30T09:37:49;6.23;;;4.30;;
3066;SDS011;1544;48.834;9.194;2023-03-30T09:40:36;6.30;;;4.57;;
3066;SDS011;1544;48.834;9.194;2023-03-30T09:43:39;5.00;;;2.83;;
3066;SDS011;1544;48.834;9.194;2023-03-30T09:46:17;8.77;;;4.67;;
3066;SDS011;1544;48.834;9.194;2023-03-30T09:48:52;3.60;;;2.80;;
3066;SDS011;1544;48.834;9.194;2023-03-30T09:51:27;2.57;;;2.33;;
3066;SDS011;1544;48.834;9.194;2023-03-30T09:54:04;4.90;;;2.70;;
3066;SDS011;1544;48.834;9.194;2023-03-30T09:56:40;5.07;;;3.10;;
3066;SDS011;1544;48.834;9.194;2023-03-30T10:07:35;3.53;;;1.70;;
3066;SDS011;1544;48.834;9.194;2023-03-30T10:10:36;8.20;;;2.50;;
3066;SDS011;1544;48.834;9.194;2023-03-30T10:13:14;2.90;;;1.80;;
3066;SDS011;1544;48.834;9.194;2023-03-30T10:15:51;4.07;;;2.20;;
3066;SDS011;1544;48.834;9.194;2023-03-30T10:18:27;2.00;;;1.80;;
3066;SDS011;1544;48.834;9.194;2023-03-30T10:23:57;4.00;;;2.27;;
3066;SDS011;1544;48.834;9.194;2023-03-30T10:26:44;1.80;;;1.67;;
3066;SDS011;1544;48.834;9.194;2023-03-30T10:29:20;2.80;;;2.20;;
3066;SDS011;1544;48.834;9.194;2023-03-30T10:34:54;1.90;;;1.80;;
3066;SDS011;1544;48.834;9.194;2023-03-30T10:37:42;1.80;;;1.70;;
3066;SDS011;1544;48.834;9.194;2023-03-30T10:40:25;2.10;;;1.50;;
3066;SDS011;1544;48.834;9.194;2023-03-30T10:43:11;2.07;;;1.90;;
3066;SDS011;1544;48.834;9.194;2023-03-30T10:46:05;4.03;;;1.50;;
3066;SDS011;1544;48.834;9.194;2023-03-30T10:52:01;2.43;;;1.70;;
3066;SDS011;1544;48.834;9.194;2023-03-30T10:57:26;3.57;;;1.90;;
3066;SDS011;1544;48.834;9.194;2023-03-30T11:03:30;2.20;;;2.00;;
3066;SDS011;1544;48.834;9.194;2023-03-30T11:06:16;2.00;;;1.90;;
3066;SDS011;1544;48.834;9.194;2023-03-30T11:08:57;3.73;;;1.67;;
3066;SDS011;1544;48.834;9.194;2023-03-30T11:11:39;4.97;;;1.90;;
3066;SDS011;1544;48.834;9.194;2023-03-30T11:14:25;1.80;;;1.70;;
3066;SDS011;1544;48.834;9.194;2023-03-30T11:17:36;2.80;;;1.80;;
3066;SDS011;1544;48.834;9.194;2023-03-30T11:20:39;2.80;;;1.80;;
3066;SDS011;1544;48.834;9.194;2023-03-30T11:23:27;1.70;;;1.60;;
3066;SDS011;1544;48.834;9.194;2023-03-30T11:26:14;5.23;;;1.70;;
3066;SDS011;1544;48.834;9.194;2023-03-30T11:40:49;1.60;;;1.50;;
3066;SDS011;1544;48.834;9.194;2023-03-30T11:43:39;1.63;;;1.50;;
3066;SDS011;1544;48.834;9.194;2023-03-30T11:46:17;2.20;;;1.60;;
3066;SDS011;1544;48.834;9.194;2023-03-30T11:52:24;4.50;;;1.87;;
3066;SDS011;1544;48.834;9.194;2023-03-30T11:59:13;3.00;;;1.87;;
3066;SDS011;1544;48.834;9.194;2023-03-30T12:02:37;3.00;;;1.70;;
3066;SDS011;1544;48.834;9.194;2023-03-30T12:05:34;1.53;;;1.27;;
3066;SDS011;1544;48.834;9.194;2023-03-30T12:11:51;2.47;;;1.80;;
3066;SDS011;1544;48.834;9.194;2023-03-30T12:17:44;1.83;;;1.40;;
3066;SDS011;1544;48.834;9.194;2023-03-30T12:23:55;4.67;;;1.93;;
3066;SDS011;1544;48.834;9.194;2023-03-30T12:26:51;2.43;;;1.60;;
3066;SDS011;1544;48.834;9.194;2023-03-30T12:29:46;3.50;;;1.67;;
3066;SDS011;1544;48.834;9.194;2023-03-30T12:32:27;5.40;;;1.80;;
3066;SDS011;1544;48.834;9.194;2023-03-30T12:38:27;3.50;;;1.60;;
3066;SDS011;1544;48.834;9.194;2023-03-30T12:41:15;4.90;;;1.60;;
3066;SDS011;1544;48.834;9.194;2023-03-30T12:44:01;2.10;;;1.60;;
3066;SDS011;1544;48.834;9.194;2023-03-30T12:53:13;3.37;;;1.87;;
3066;SDS011;1544;48.834;9.194;2023-03-30T12:59:46;3.10;;;1.87;;
3066;SDS011;1544;48.834;9.194;2023-03-30T13:05:53;2.90;;;1.40;;
3066;SDS011;1544;48.834;9.194;2023-03-30T13:08:34;5.30;;;1.83;;
3066;SDS011;1544;48.834;9.194;2023-03-30T13:11:17;3.50;;;2.03;;
3066;SDS011;1544;48.834;9.194;2023-03-30T13:13:56;2.80;;;1.60;;
3066;SDS011;1544;48.834;9.194;2023-03-30T13:24:54;2.60;;;1.07;;
3066;SDS011;1544;48.834;9.194;2023-03-30T13:27:35;3.20;;;1.10;;
3066;SDS011;1544;48.834;9.194;2023-03-30T13:30:15;2.27;;;1.30;;
3066;SDS011;1544;48.834;9.194;2023-03-30T13:32:56;3.30;;;1.17;;
3066;SDS011;1544;48.834;9.194;2023-03-30T13:41:12;1.90;;;1.30;;
3066;SDS011;1544;48.834;9.194;2023-03-30T13:47:27;2.03;;;1.27;;
3066;SDS011;1544;48.834;9.194;2023-03-30T13:53:00;1.57;;;1.30;;
3066;SDS011;1544;48.834;9.194;2023-03-30T13:55:48;2.27;;;1.40;;
3066;SDS011;1544;48.834;9.194;2023-03-30T13:58:26;3.30;;;1.20;;
3066;SDS011;1544;48.834;9.194;2023-03-30T14:03:53;2.20;;;1.50;;
3066;SDS011;1544;48.834;9.194;2023-03-30T14:06:31;1.60;;;1.20;;
3066;SDS011;1544;48.834;9.194;2023-03-30T14:09:10;2.30;;;1.20;;
3066;SDS011;1544;48.834;9.194;2023-03-30T14:11:51;1.80;;;1.30;;
3066;SDS011;1544;48.834;9.194;2023-03-30T14:14:39;2.90;;;1.30;;
3066;SDS011;1544;48.834;9.194;2023-03-30T14:17:21;2.23;;;1.20;;
3066;SDS011;1544;48.834;9.194;2023-03-30T14:26:15;2.03;;;1.30;;
3066;SDS011;1544;48.834;9.194;2023-03-30T14:28:57;3.47;;;1.20;;
3066;SDS011;1544;48.834;9.194;2023-03-30T14:31:37;2.03;;;1.30;;
3066;SDS011;1544;48.834;9.194;2023-03-30T14:37:03;2.33;;;1.40;;
3066;SDS011;1544;48.834;9.194;2023-03-30T14:39:42;3.57;;;1.40;;
3066;SDS011;1544;48.834;9.194;2023-03-30T14:42:23;2.47;;;1.20;;
3066;SDS011;1544;48.834;9.194;2023-03-30T14:45:02;2.30;;;1.17;;
3066;SDS011;1544;48.834;9.194;2023-03-30T14:47:37;2.40;;;1.10;;
3066;SDS011;1544;48.834;9.194;2023-03-30T14:50:13;2.30;;;0.97;;
3066;SDS011;1544;48.834;9.194;2023-03-30T14:52:50;1.37;;;0.87;;
3066;SDS011;1544;48.834;9.194;2023-03-30T14:55:25;2.93;;;1.00;;
3066;SDS011;1544;48.834;9.194;2023-03-30T14:58:01;2.67;;;0.90;;
3066;SDS011;1544;48.834;9.194;2023-03-30T15:00:36;0.70;;;0.70;;
3066;SDS011;1544;48.834;9.194;2023-03-30T15:03:12;0.70;;;0.60;;
3066;SDS011;1544;48.834;9.194;2023-03-30T15:06:04;0.60;;;0.60;;
3066;SDS011;1544;48.834;9.194;2023-03-30T15:08:43;2.10;;;0.77;;
3066;SDS011;1544;48.834;9.194;2023-03-30T15:11:21;1.33;;;0.67;;
3066;SDS011;1544;48.834;9.194;2023-03-30T15:14:04;1.00;;;0.70;;
3066;SDS011;1544;48.834;9.194;2023-03-30T15:16:42;0.90;;;0.70;;
3066;SDS011;1544;48.834;9.194;2023-03-30T15:19:33;1.40;;;0.80;;
3066;SDS011;1544;48.834;9.194;2023-03-30T15:22:12;1.40;;;1.00;;
3066;SDS011;1544;48.834;9.194;2023-03-30T15:25:07;2.03;;;0.90;;
3066;SDS011;1544;48.834;9.194;2023-03-30T15:30:52;1.53;;;0.90;;
3066;SDS011;1544;48.834;9.194;2023-03-30T15:33:34;1.27;;;0.80;;
3066;SDS011;1544;48.834;9.194;2023-03-30T15:36:19;1.87;;;0.90;;
3066;SDS011;1544;48.834;9.194;2023-03-30T15:38:56;6.20;;;1.00;;
3066;SDS011;1544;48.834;9.194;2023-03-30T15:44:41;5.07;;;1.10;;
3066;SDS011;1544;48.834;9.194;2023-03-30T15:47:16;0.93;;;0.80;;
3066;SDS011;1544;48.834;9.194;2023-03-30T15:49:54;1.47;;;0.90;;
3066;SDS011;1544;48.834;9.194;2023-03-30T15:52:36;2.30;;;0.80;;
3066;SDS011;1544;48.834;9.194;2023-03-30T15:55:18;1.00;;;0.80;;
3066;SDS011;1544;48.834;9.194;2023-03-30T15:57:59;2.60;;;0.90;;
3066;SDS011;1544;48.834;9.194;2023-03-30T16:00:36;1.97;;;0.90;;
3066;SDS011;1544;48.834;9.194;2023-03-30T16:03:11;2.87;;;1.03;;
3066;SDS011;1544;48.834;9.194;2023-03-30T16:05:47;1.30;;;0.83;;
3066;SDS011;1544;48.834;9.194;2023-03-30T16:08:22;0.90;;;0.80;;
3066;SDS011;1544;48.834;9.194;2023-03-30T16:10:57;0.83;;;0.80;;
3066;SDS011;1544;48.834;9.194;2023-03-30T16:13:32;1.20;;;0.93;;
3066;SDS011;1544;48.834;9.194;2023-03-30T16:16:07;1.20;;;1.10;;
3066;SDS011;1544;48.834;9.194;2023-03-30T16:18:44;2.30;;;0.80;;
3066;SDS011;1544;48.834;9.194;2023-03-30T16:21:20;1.83;;;0.90;;
3066;SDS011;1544;48.834;9.194;2023-03-30T16:23:57;3.07;;;0.80;;
3066;SDS011;1544;48.834;9.194;2023-03-30T16:26:32;1.27;;;0.83;;
3066;SDS011;1544;48.834;9.194;2023-03-30T16:29:11;2.80;;;0.80;;
3066;SDS011;1544;48.834;9.194;2023-03-30T16:31:54;1.43;;;0.70;;
3066;SDS011;1544;48.834;9.194;2023-03-30T16:34:29;2.23;;;0.80;;
3066;SDS011;1544;48.834;9.194;2023-03-30T16:37:04;2.07;;;0.73;;
3066;SDS011;1544;48.834;9.194;2023-03-30T16:39:39;1.13;;;0.60;;
3066;SDS011;1544;48.834;9.194;2023-03-30T16:42:14;1.40;;;1.00;;
3066;SDS011;1544;48.834;9.194;2023-03-30T16:44:49;2.00;;;0.83;;
3066;SDS011;1544;48.834;9.194;2023-03-30T16:47:24;1.23;;;0.70;;
3066;SDS011;1544;48.834;9.194;2023-03-30T16:50:00;2.00;;;0.70;;
3066;SDS011;1544;48.834;9.194;2023-03-30T16:52:44;1.00;;;0.67;;
3066;SDS011;1544;48.834;9.194;2023-03-30T16:55:19;0.70;;;0.60;;
3066;SDS011;1544;48.834;9.194;2023-03-30T16:57:54;1.30;;;0.50;;
3066;SDS011;1544;48.834;9.194;2023-03-30T17:00:30;1.00;;;0.63;;
3066;SDS011;1544;48.834;9.194;2023-03-30T17:03:11;2.00;;;0.63;;
3066;SDS011;1544;48.834;9.194;2023-03-30T17:05:46;0.80;;;0.70;;
3066;SDS011;1544;48.834;9.194;2023-03-30T17:08:23;0.67;;;0.60;;
3066;SDS011;1544;48.834;9.194;2023-03-30T17:11:00;3.47;;;0.97;;
3066;SDS011;1544;48.834;9.194;2023-03-30T17:13:41;1.27;;;0.90;;
3066;SDS011;1544;48.834;9.194;2023-03-30T17:16:16;1.70;;;0.70;;
3066;SDS011;1544;48.834;9.194;2023-03-30T17:18:51;2.07;;;0.60;;
3066;SDS011;1544;48.834;9.194;2023-03-30T17:21:26;1.83;;;0.73;;
3066;SDS011;1544;48.834;9.194;2023-03-30T17:24:02;1.80;;;0.80;;
3066;SDS011;1544;48.834;9.194;2023-03-30T17:26:37;1.23;;;0.83;;
3066;SDS011;1544;48.834;9.194;2023-03-30T17:29:13;0.80;;;0.70;;
3066;SDS011;1544;48.834;9.194;2023-03-30T17:31:47;1.50;;;0.70;;
3066;SDS011;1544;48.834;9.194;2023-03-30T17:34:22;2.17;;;0.90;;
3066;SDS011;1544;48.834;9.194;2023-03-30T17:36:57;0.70;;;0.70;;
3066;SDS011;1544;48.834;9.194;2023-03-30T17:39:32;1.70;;;0.70;;
3066;SDS011;1544;48.834;9.194;2023-03-30T17:42:07;1.23;;;0.83;;
3066;SDS011;1544;48.834;9.194;2023-03-30T17:44:42;2.53;;;1.03;;
3066;SDS011;1544;48.834;9.194;2023-03-30T17:47:17;0.60;;;0.60;;
3066;SDS011;1544;48.834;9.194;2023-03-30T17:49:52;1.97;;;1.00;;
3066;SDS011;1544;48.834;9.194;2023-03-30T17:52:27;0.93;;;0.80;;
3066;SDS011;1544;48.834;9.194;2023-03-30T17:55:03;2.70;;;0.87;;
3066;SDS011;1544;48.834;9.194;2023-03-30T17:57:40;1.27;;;0.70;;
3066;SDS011;1544;48.834;9.194;2023-03-30T18:00:17;2.20;;;0.80;;
3066;SDS011;1544;48.834;9.194;2023-03-30T18:02:57;1.33;;;0.80;;
3066;SDS011;1544;48.834;9.194;2023-03-30T18:05:33;3.47;;;0.80;;
3066;SDS011;1544;48.834;9.194;2023-03-30T18:08:15;1.83;;;0.90;;
3066;SDS011;1544;48.834;9.194;2023-03-30T18:10:56;0.70;;;0.53;;
3066;SDS011;1544;48.834;9.194;2023-03-30T18:13:33;4.47;;;1.20;;
3066;SDS011;1544;48.834;9.194;2023-03-30T18:16:09;2.43;;;0.90;;
3066;SDS011;1544;48.834;9.194;2023-03-30T18:18:47;0.93;;;0.70;;
3066;SDS011;1544;48.834;9.194;2023-03-30T18:21:22;2.00;;;1.00;;
3066;SDS011;1544;48.834;9.194;2023-03-30T18:23:57;2.17;;;0.80;;
3066;SDS011;1544;48.834;9.194;2023-03-30T18:26:33;1.13;;;0.80;;
3066;SDS011;1544;48.834;9.194;2023-03-30T18:29:15;1.73;;;0.87;;
3066;SDS011;1544;48.834;9.194;2023-03-30T18:31:53;1.37;;;1.00;;
3066;SDS011;1544;48.834;9.194;2023-03-30T18:34:29;1.60;;;0.90;;
3066;SDS011;1544;48.834;9.194;2023-03-30T18:37:03;1.53;;;0.83;;
3066;SDS011;1544;48.834;9.194;2023-03-30T18:39:40;3.90;;;0.80;;
3066;SDS011;1544;48.834;9.194;2023-03-30T18:42:16;1.23;;;0.70;;
3066;SDS011;1544;48.834;9.194;2023-03-30T18:44:51;4.10;;;1.00;;
3066;SDS011;1544;48.834;9.194;2023-03-30T18:47:26;1.47;;;0.90;;
3066;SDS011;1544;48.834;9.194;2023-03-30T18:50:01;1.60;;;1.20;;
3066;SDS011;1544;48.834;9.194;2023-03-30T18:52:43;3.43;;;1.30;;
3066;SDS011;1544;48.834;9.194;2023-03-30T18:55:19;1.73;;;1.27;;
3066;SDS011;1544;48.834;9.194;2023-03-30T18:57:54;3.13;;;1.10;;
3066;SDS011;1544;48.834;9.194;2023-03-30T19:00:32;1.43;;;0.90;;
3066;SDS011;1544;48.834;9.194;2023-03-30T19:03:08;1.93;;;1.10;;
3066;SDS011;1544;48.834;9.194;2023-03-30T19:05:46;2.63;;;1.10;;
3066;SDS011;1544;48.834;9.194;2023-03-30T19:08:23;2.00;;;1.00;;
3066;SDS011;1544;48.834;9.194;2023-03-30T19:10:59;1.20;;;0.93;;